createdAt,value
2018-01-02T00:00:04.426Z,994.85
2018-01-02T00:01:04.430Z,994.83
2018-01-02T00:02:04.436Z,994.88
2018-01-02T00:03:04.434Z,994.89
2018-01-02T00:04:04.450Z,994.91
2018-01-02T00:05:04.446Z,994.93
2018-01-02T00:06:04.460Z,994.96
2018-01-02T00:07:04.454Z,994.91
2018-01-02T00:08:04.456Z,994.95
2018-01-02T00:09:04.460Z,995.01
2018-01-02T00:10:04.460Z,995.04
2018-01-02T00:11:04.468Z,995.00
2018-01-02T00:12:04.468Z,995.05
2018-01-02T00:13:04.467Z,995.06
2018-01-02T00:14:04.473Z,995.05
2018-01-02T00:15:04.481Z,995.11
2018-01-02T00:16:04.484Z,995.09
2018-01-02T00:17:04.479Z,995.16
2018-01-02T00:18:04.490Z,995.14
2018-01-02T00:19:04.488Z,995.18
2018-01-02T00:20:04.494Z,995.17
2018-01-02T00:21:04.495Z,995.15
2018-01-02T00:22:04.518Z,995.17
2018-01-02T00:23:04.507Z,995.21
2018-01-02T00:24:04.498Z,995.28
2018-01-02T00:25:04.509Z,995.30
2018-01-02T00:26:04.508Z,995.31
2018-01-02T00:27:04.518Z,995.29
2018-01-02T00:28:04.516Z,995.37
2018-01-02T00:29:04.527Z,995.38
2018-01-02T00:30:04.525Z,995.36
2018-01-02T00:31:04.536Z,995.35
2018-01-02T00:32:04.532Z,995.38
2018-01-02T00:33:04.546Z,995.40
2018-01-02T00:34:04.540Z,995.44
2018-01-02T00:35:04.545Z,995.49
2018-01-02T00:36:04.539Z,995.44
2018-01-02T00:37:04.543Z,995.55
2018-01-02T00:38:04.549Z,995.51
2018-01-02T00:39:04.555Z,995.56
2018-01-02T00:40:04.556Z,995.60
2018-01-02T00:41:04.560Z,995.63
2018-01-02T00:42:04.562Z,995.60
2018-01-02T00:43:04.573Z,995.68
2018-01-02T00:44:04.568Z,995.70
2018-01-02T00:45:04.573Z,995.69
2018-01-02T00:46:04.578Z,995.73
2018-01-02T00:47:04.579Z,995.71
2018-01-02T00:48:04.590Z,995.71
2018-01-02T00:49:04.582Z,995.74
2018-01-02T00:50:04.586Z,995.80
2018-01-02T00:51:04.595Z,995.83
2018-01-02T00:52:04.594Z,995.79
2018-01-02T00:53:04.593Z,995.84
2018-01-02T00:54:04.601Z,995.88
2018-01-02T00:55:04.600Z,995.89
2018-01-02T00:56:04.608Z,995.91
2018-01-02T00:57:04.642Z,995.89
2018-01-02T00:58:04.612Z,995.91
2018-01-02T00:59:04.613Z,995.94
2018-01-02T01:00:04.621Z,995.95
2018-01-02T01:01:04.620Z,995.97
2018-01-02T01:02:04.629Z,995.99
2018-01-02T01:03:04.622Z,996.02
2018-01-02T01:04:04.632Z,995.99
2018-01-02T01:05:04.636Z,996.04
2018-01-02T01:06:04.646Z,996.05
2018-01-02T01:07:04.638Z,996.08
2018-01-02T01:08:04.645Z,996.08
2018-01-02T01:09:04.649Z,996.13
2018-01-02T01:10:04.652Z,996.15
2018-01-02T01:11:04.653Z,996.16
2018-01-02T01:12:04.671Z,996.17
2018-01-02T01:13:04.658Z,996.17
2018-01-02T01:14:04.664Z,996.20
2018-01-02T01:15:04.662Z,996.22
2018-01-02T01:16:04.665Z,996.33
2018-01-02T01:17:04.672Z,996.31
2018-01-02T01:18:04.674Z,996.31
2018-01-02T01:19:04.674Z,996.41
2018-01-02T01:20:04.679Z,996.41
2018-01-02T01:21:04.685Z,996.44
2018-01-02T01:22:04.688Z,996.47
2018-01-02T01:23:04.686Z,996.48
2018-01-02T01:24:04.688Z,996.50
2018-01-02T01:25:04.687Z,996.53
2018-01-02T01:26:04.697Z,996.58
2018-01-02T01:27:04.703Z,996.57
2018-01-02T01:28:04.700Z,996.62
2018-01-02T01:29:04.714Z,996.60
2018-01-02T01:30:04.710Z,996.61
2018-01-02T01:31:04.712Z,996.65
2018-01-02T01:32:04.708Z,996.62
2018-01-02T01:33:04.716Z,996.65
2018-01-02T01:34:04.721Z,996.65
2018-01-02T01:35:04.725Z,996.66
2018-01-02T01:36:04.731Z,996.71
2018-01-02T01:37:04.733Z,996.74
2018-01-02T01:38:04.735Z,996.78
2018-01-02T01:39:04.735Z,996.75
2018-01-02T01:40:04.739Z,996.79
2018-01-02T01:41:04.739Z,996.84
2018-01-02T01:42:04.748Z,996.86
2018-01-02T01:43:04.749Z,996.86
2018-01-02T01:44:04.749Z,996.90
2018-01-02T01:45:04.752Z,996.89
2018-01-02T01:46:04.757Z,996.90
2018-01-02T01:47:04.761Z,996.94
2018-01-02T01:48:04.759Z,996.95
2018-01-02T01:49:04.769Z,996.98
2018-01-02T01:50:05.308Z,997.01
2018-01-02T01:51:04.776Z,997.01
2018-01-02T01:52:04.773Z,997.03
2018-01-02T01:53:04.779Z,997.02
2018-01-02T01:54:04.774Z,997.03
2018-01-02T01:55:04.781Z,997.08
2018-01-02T01:56:04.788Z,997.04
2018-01-02T01:57:04.788Z,997.04
2018-01-02T01:58:04.795Z,997.09
2018-01-02T01:59:04.797Z,997.12
2018-01-02T02:00:04.794Z,997.17
2018-01-02T02:01:04.802Z,997.21
2018-01-02T02:02:04.830Z,997.19
2018-01-02T02:03:04.804Z,997.26
2018-01-02T02:04:04.811Z,997.30
2018-01-02T02:05:04.833Z,997.28
2018-01-02T02:06:04.820Z,997.28
2018-01-02T02:07:04.820Z,997.29
2018-01-02T02:08:04.819Z,997.33
2018-01-02T02:09:04.826Z,997.29
2018-01-02T02:10:04.830Z,997.34
2018-01-02T02:11:04.833Z,997.30
2018-01-02T02:12:04.837Z,997.31
2018-01-02T02:13:04.837Z,997.34
2018-01-02T02:14:04.874Z,997.33
2018-01-02T02:15:04.847Z,997.34
2018-01-02T02:16:04.844Z,997.34
2018-01-02T02:17:04.850Z,997.38
2018-01-02T02:18:04.850Z,997.39
2018-01-02T02:19:04.857Z,997.38
2018-01-02T02:20:04.865Z,997.39
2018-01-02T02:21:04.861Z,997.41
2018-01-02T02:22:04.862Z,997.44
2018-01-02T02:23:04.870Z,997.39
2018-01-02T02:24:04.871Z,997.41
2018-01-02T02:25:04.870Z,997.43
2018-01-02T02:26:04.883Z,997.37
2018-01-02T02:27:04.876Z,997.40
2018-01-02T02:28:04.879Z,997.41
2018-01-02T02:29:04.888Z,997.41
2018-01-02T02:30:04.892Z,997.44
2018-01-02T02:31:04.889Z,997.40
2018-01-02T02:32:04.890Z,997.44
2018-01-02T02:33:04.911Z,997.46
2018-01-02T02:34:04.907Z,997.44
2018-01-02T02:35:04.904Z,997.43
2018-01-02T02:36:04.907Z,997.44
2018-01-02T02:37:04.907Z,997.39
2018-01-02T02:38:04.914Z,997.44
2018-01-02T02:39:04.914Z,997.43
2018-01-02T02:40:04.922Z,997.46
2018-01-02T02:41:04.917Z,997.47
2018-01-02T02:42:04.928Z,997.47
2018-01-02T02:43:04.927Z,997.46
2018-01-02T02:44:04.931Z,997.49
2018-01-02T02:45:04.935Z,997.49
2018-01-02T02:46:04.941Z,997.48
2018-01-02T02:47:04.938Z,997.46
2018-01-02T02:48:04.935Z,997.53
2018-01-02T02:49:04.947Z,997.51
2018-01-02T02:50:04.946Z,997.53
2018-01-02T02:51:04.955Z,997.55
2018-01-02T02:52:04.953Z,997.59
2018-01-02T02:53:04.959Z,997.65
2018-01-02T02:54:04.957Z,997.63
2018-01-02T02:55:04.966Z,997.64
2018-01-02T02:56:04.963Z,997.65
2018-01-02T02:57:04.971Z,997.66
2018-01-02T02:58:04.974Z,997.67
2018-01-02T02:59:04.972Z,997.69
2018-01-02T03:00:04.979Z,997.71
2018-01-02T03:01:04.984Z,997.71
2018-01-02T03:02:04.988Z,997.66
2018-01-02T03:03:04.985Z,997.72
2018-01-02T03:04:04.993Z,997.70
2018-01-02T03:05:04.995Z,997.71
2018-01-02T03:06:04.995Z,997.72
2018-01-02T03:07:05.001Z,997.75
2018-01-02T03:08:04.998Z,997.77
2018-01-02T03:09:05.006Z,997.77
2018-01-02T03:10:05.014Z,997.81
2018-01-02T03:11:05.013Z,997.81
2018-01-02T03:12:05.014Z,997.84
2018-01-02T03:13:05.018Z,997.81
2018-01-02T03:14:05.020Z,997.86
2018-01-02T03:15:05.026Z,997.89
2018-01-02T03:16:05.026Z,997.84
2018-01-02T03:17:05.032Z,997.90
2018-01-02T03:18:05.033Z,997.90
2018-01-02T03:19:05.038Z,997.88
2018-01-02T03:20:05.038Z,997.88
2018-01-02T03:21:05.047Z,997.87
2018-01-02T03:22:05.047Z,997.91
2018-01-02T03:23:05.048Z,997.94
2018-01-02T03:24:05.046Z,997.97
2018-01-02T03:25:05.055Z,997.97
2018-01-02T03:26:05.059Z,997.99
2018-01-02T03:27:05.059Z,998.06
2018-01-02T03:28:05.060Z,998.05
2018-01-02T03:29:05.067Z,998.01
2018-01-02T03:30:05.076Z,997.98
2018-01-02T03:31:05.078Z,998.00
2018-01-02T03:32:05.074Z,998.02
2018-01-02T03:33:05.087Z,998.07
2018-01-02T03:34:05.083Z,998.03
2018-01-02T03:35:05.082Z,998.11
2018-01-02T03:36:05.084Z,998.11
2018-01-02T03:37:05.096Z,998.14
2018-01-02T03:38:05.095Z,998.16
2018-01-02T03:39:05.092Z,998.12
2018-01-02T03:40:05.101Z,998.14
2018-01-02T03:41:05.111Z,998.20
2018-01-02T03:42:05.836Z,998.23
2018-01-02T03:43:05.106Z,998.24
2018-01-02T03:44:05.109Z,998.22
2018-01-02T03:45:05.117Z,998.21
2018-01-02T03:46:05.117Z,998.24
2018-01-02T03:47:05.117Z,998.25
2018-01-02T03:48:05.121Z,998.23
2018-01-02T03:49:05.128Z,998.25
2018-01-02T03:50:05.131Z,998.27
2018-01-02T03:51:05.130Z,998.25
2018-01-02T03:52:05.131Z,998.27
2018-01-02T03:53:05.138Z,998.29
2018-01-02T03:54:05.139Z,998.31
2018-01-02T03:55:05.139Z,998.34
2018-01-02T03:56:05.147Z,998.39
2018-01-02T03:57:05.146Z,998.35
2018-01-02T03:58:05.154Z,998.38
2018-01-02T03:59:05.155Z,998.40
2018-01-02T04:00:05.155Z,998.41
2018-01-02T04:01:05.158Z,998.44
2018-01-02T04:02:05.170Z,998.43
2018-01-02T04:03:05.175Z,998.46
2018-01-02T04:04:05.173Z,998.45
2018-01-02T04:05:05.172Z,998.41
2018-01-02T04:06:05.177Z,998.46
2018-01-02T04:07:05.177Z,998.50
2018-01-02T04:08:05.185Z,998.51
2018-01-02T04:09:05.189Z,998.56
2018-01-02T04:10:05.198Z,998.54
2018-01-02T04:11:05.190Z,998.58
2018-01-02T04:12:05.193Z,998.61
2018-01-02T04:13:05.194Z,998.59
2018-01-02T04:14:05.200Z,998.60
2018-01-02T04:15:05.249Z,998.62
2018-01-02T04:16:05.202Z,998.58
2018-01-02T04:17:05.204Z,998.59
2018-01-02T04:18:05.209Z,998.64
2018-01-02T04:19:05.216Z,998.64
2018-01-02T04:20:05.216Z,998.65
2018-01-02T04:21:05.213Z,998.60
2018-01-02T04:22:05.216Z,998.67
2018-01-02T04:23:05.224Z,998.69
2018-01-02T04:24:05.226Z,998.72
2018-01-02T04:25:05.231Z,998.75
2018-01-02T04:26:05.230Z,998.76
2018-01-02T04:27:05.236Z,998.77
2018-01-02T04:28:05.249Z,998.77
2018-01-02T04:29:05.252Z,998.79
2018-01-02T04:30:05.242Z,998.79
2018-01-02T04:31:05.250Z,998.81
2018-01-02T04:32:05.252Z,998.78
2018-01-02T04:33:05.251Z,998.77
2018-01-02T04:34:05.256Z,998.81
2018-01-02T04:35:05.255Z,998.75
2018-01-02T04:36:05.258Z,998.75
2018-01-02T04:37:05.264Z,998.79
2018-01-02T04:38:05.279Z,998.79
2018-01-02T04:39:05.270Z,998.79
2018-01-02T04:40:05.271Z,998.82
2018-01-02T04:41:05.277Z,998.87
2018-01-02T04:42:05.277Z,998.88
2018-01-02T04:43:05.282Z,998.91
2018-01-02T04:44:05.284Z,998.89
2018-01-02T04:45:05.284Z,998.93
2018-01-02T04:46:05.290Z,998.96
2018-01-02T04:47:05.298Z,998.94
2018-01-02T04:48:05.298Z,998.94
2018-01-02T04:49:05.298Z,999.01
2018-01-02T04:50:05.305Z,999.07
2018-01-02T04:51:05.302Z,999.04
2018-01-02T04:52:05.311Z,999.06
2018-01-02T04:53:05.308Z,999.13
2018-01-02T04:54:05.316Z,999.12
2018-01-02T04:55:05.318Z,999.16
2018-01-02T04:56:05.323Z,999.18
2018-01-02T04:57:05.319Z,999.18
2018-01-02T04:58:05.322Z,999.23
2018-01-02T04:59:05.331Z,999.21
2018-01-02T05:00:05.332Z,999.20
2018-01-02T05:01:05.339Z,999.19
2018-01-02T05:02:05.335Z,999.22
2018-01-02T05:03:05.343Z,999.29
2018-01-02T05:04:05.342Z,999.32
2018-01-02T05:05:05.349Z,999.34
2018-01-02T05:06:05.359Z,999.36
2018-01-02T05:07:05.357Z,999.39
2018-01-02T05:08:05.357Z,999.36
2018-01-02T05:09:05.361Z,999.38
2018-01-02T05:10:05.361Z,999.41
2018-01-02T05:11:05.367Z,999.44
2018-01-02T05:12:05.372Z,999.48
2018-01-02T05:13:05.374Z,999.49
2018-01-02T05:14:05.377Z,999.49
2018-01-02T05:15:05.375Z,999.54
2018-01-02T05:16:05.382Z,999.51
2018-01-02T05:17:05.385Z,999.56
2018-01-02T05:18:05.390Z,999.59
2018-01-02T05:19:05.392Z,999.63
2018-01-02T05:20:05.393Z,999.65
2018-01-02T05:21:05.392Z,999.69
2018-01-02T05:22:05.398Z,999.67
2018-01-02T05:23:05.401Z,999.72
2018-01-02T05:24:05.406Z,999.71
2018-01-02T05:25:05.409Z,999.74
2018-01-02T05:26:05.414Z,999.74
2018-01-02T05:27:05.416Z,999.80
2018-01-02T05:28:05.419Z,999.80
2018-01-02T05:29:05.420Z,999.78
2018-01-02T05:30:05.427Z,999.78
2018-01-02T05:31:05.432Z,999.78
2018-01-02T05:32:05.437Z,999.85
2018-01-02T05:33:05.432Z,999.81
2018-01-02T05:34:05.436Z,999.87
2018-01-02T05:35:07.105Z,999.91
2018-01-02T05:36:07.613Z,999.90
2018-01-02T05:37:05.446Z,999.93
2018-01-02T05:38:05.470Z,999.90
2018-01-02T05:39:05.456Z,999.89
2018-01-02T05:40:05.456Z,999.89
2018-01-02T05:41:05.458Z,999.92
2018-01-02T05:42:05.459Z,999.92
2018-01-02T05:43:05.466Z,999.91
2018-01-02T05:44:05.466Z,999.96
2018-01-02T05:45:07.750Z,999.97
2018-01-02T05:46:05.474Z,999.96
2018-01-02T05:47:05.481Z,1000.00
2018-01-02T05:48:05.484Z,1000.06
2018-01-02T05:49:05.481Z,1000.04
2018-01-02T05:50:05.479Z,1000.08
2018-01-02T05:51:05.489Z,1000.04
2018-01-02T05:52:05.494Z,1000.04
2018-01-02T05:53:05.492Z,1000.07
2018-01-02T05:54:05.498Z,1000.11
2018-01-02T05:55:05.529Z,1000.08
2018-01-02T05:56:05.502Z,1000.09
2018-01-02T05:57:05.512Z,1000.14
2018-01-02T05:58:05.507Z,1000.15
2018-01-02T05:59:05.513Z,1000.17
2018-01-02T06:00:05.520Z,1000.23
2018-01-02T06:01:05.526Z,1000.23
2018-01-02T06:02:05.530Z,1000.27
2018-01-02T06:03:05.540Z,1000.31
2018-01-02T06:04:05.531Z,1000.28
2018-01-02T06:05:05.537Z,1000.33
2018-01-02T06:06:05.534Z,1000.33
2018-01-02T06:07:05.550Z,1000.35
2018-01-02T06:08:05.540Z,1000.37
2018-01-02T06:09:05.555Z,1000.40
2018-01-02T06:10:05.553Z,1000.41
2018-01-02T06:11:05.550Z,1000.43
2018-01-02T06:12:05.557Z,1000.46
2018-01-02T06:13:05.554Z,1000.51
2018-01-02T06:14:05.563Z,1000.54
2018-01-02T06:15:05.568Z,1000.58
2018-01-02T06:16:05.566Z,1000.62
2018-01-02T06:17:05.573Z,1000.61
2018-01-02T06:18:05.579Z,1000.61
2018-01-02T06:19:05.577Z,1000.64
2018-01-02T06:20:05.583Z,1000.68
2018-01-02T06:21:05.579Z,1000.68
2018-01-02T06:22:05.587Z,1000.73
2018-01-02T06:23:05.585Z,1000.78
2018-01-02T06:24:05.593Z,1000.78
2018-01-02T06:25:05.593Z,1000.80
2018-01-02T06:26:05.601Z,1000.79
2018-01-02T06:27:05.600Z,1000.88
2018-01-02T06:28:05.609Z,1000.84
2018-01-02T06:29:05.605Z,1000.88
2018-01-02T06:30:05.618Z,1000.86
2018-01-02T06:31:05.612Z,1000.91
2018-01-02T06:32:05.620Z,1000.93
2018-01-02T06:33:05.617Z,1000.91
2018-01-02T06:34:05.624Z,1000.96
2018-01-02T06:35:05.628Z,1000.94
2018-01-02T06:36:05.624Z,1000.95
2018-01-02T06:37:05.634Z,1000.93
2018-01-02T06:38:05.641Z,1000.93
2018-01-02T06:39:05.638Z,1000.97
2018-01-02T06:40:05.637Z,1000.92
2018-01-02T06:41:05.645Z,1000.96
2018-01-02T06:42:05.651Z,1000.97
2018-01-02T06:43:05.649Z,1000.98
2018-01-02T06:44:05.650Z,1000.96
2018-01-02T06:45:05.671Z,1001.04
2018-01-02T06:46:05.662Z,1001.04
2018-01-02T06:47:05.664Z,1001.05
2018-01-02T06:48:05.667Z,1001.04
2018-01-02T06:49:05.678Z,1001.07
2018-01-02T06:50:05.679Z,1001.07
2018-01-02T06:51:05.668Z,1001.03
2018-01-02T06:52:05.673Z,1001.06
2018-01-02T06:53:05.682Z,1001.07
2018-01-02T06:54:05.685Z,1001.11
2018-01-02T06:55:05.685Z,1001.14
2018-01-02T06:56:05.688Z,1001.15
2018-01-02T06:57:05.694Z,1001.16
2018-01-02T06:58:05.700Z,1001.17
2018-01-02T06:59:05.699Z,1001.19
2018-01-02T07:00:05.700Z,1001.23
2018-01-02T07:01:05.714Z,1001.25
2018-01-02T07:02:05.766Z,1001.25
2018-01-02T07:03:05.713Z,1001.28
2018-01-02T07:04:05.713Z,1001.30
2018-01-02T07:05:05.720Z,1001.29
2018-01-02T07:06:05.722Z,1001.30
2018-01-02T07:07:05.723Z,1001.34
2018-01-02T07:08:05.725Z,1001.36
2018-01-02T07:09:05.732Z,1001.37
2018-01-02T07:10:05.731Z,1001.42
2018-01-02T07:11:05.737Z,1001.41
2018-01-02T07:12:05.736Z,1001.43
2018-01-02T07:13:05.746Z,1001.43
2018-01-02T07:14:05.746Z,1001.42
2018-01-02T07:15:05.749Z,1001.46
2018-01-02T07:16:05.753Z,1001.51
2018-01-02T07:17:05.756Z,1001.53
2018-01-02T07:18:05.760Z,1001.56
2018-01-02T07:19:05.763Z,1001.59
2018-01-02T07:20:05.759Z,1001.59
2018-01-02T07:21:05.777Z,1001.62
2018-01-02T07:22:05.773Z,1001.64
2018-01-02T07:23:05.771Z,1001.64
2018-01-02T07:24:05.782Z,1001.63
2018-01-02T07:25:05.778Z,1001.62
2018-01-02T07:26:05.786Z,1001.66
2018-01-02T07:27:05.784Z,1001.67
2018-01-02T07:28:05.800Z,1001.67
2018-01-02T07:29:05.791Z,1001.71
2018-01-02T07:30:05.790Z,1001.74
2018-01-02T07:31:05.800Z,1001.74
2018-01-02T07:32:05.800Z,1001.73
2018-01-02T07:33:05.810Z,1001.74
2018-01-02T07:34:05.805Z,1001.75
2018-01-02T07:35:05.833Z,1001.76
2018-01-02T07:36:05.814Z,1001.77
2018-01-02T07:37:05.826Z,1001.80
2018-01-02T07:38:05.825Z,1001.82
2018-01-02T07:39:05.825Z,1001.84
2018-01-02T07:40:05.831Z,1001.86
2018-01-02T07:41:05.837Z,1001.86
2018-01-02T07:42:05.840Z,1001.84
2018-01-02T07:43:05.841Z,1001.85
2018-01-02T07:44:05.839Z,1001.87
2018-01-02T07:45:05.847Z,1001.88
2018-01-02T07:46:05.854Z,1001.93
2018-01-02T07:47:05.854Z,1001.93
2018-01-02T07:48:05.859Z,1001.94
2018-01-02T07:49:05.860Z,1001.94
2018-01-02T07:50:05.867Z,1001.93
2018-01-02T07:51:05.871Z,1001.99
2018-01-02T07:52:05.874Z,1002.02
2018-01-02T07:53:05.869Z,1002.05
2018-01-02T07:54:05.880Z,1002.03
2018-01-02T07:55:07.130Z,1002.08
2018-01-02T07:56:07.171Z,1002.08
2018-01-02T07:57:05.889Z,1002.10
2018-01-02T07:58:05.895Z,1002.10
2018-01-02T07:59:05.902Z,1002.12
2018-01-02T08:00:05.896Z,1002.16
2018-01-02T08:01:05.911Z,1002.15
2018-01-02T08:02:05.970Z,1002.15
2018-01-02T08:03:05.911Z,1002.14
2018-01-02T08:04:05.926Z,1002.17
2018-01-02T08:05:05.915Z,1002.16
2018-01-02T08:06:05.923Z,1002.15
2018-01-02T08:07:06.905Z,1002.17
2018-01-02T08:08:05.926Z,1002.23
2018-01-02T08:09:05.926Z,1002.20
2018-01-02T08:10:05.933Z,1002.22
2018-01-02T08:11:05.939Z,1002.25
2018-01-02T08:12:05.938Z,1002.28
2018-01-02T08:13:05.945Z,1002.30
2018-01-02T08:14:05.951Z,1002.32
2018-01-02T08:15:05.959Z,1002.30
2018-01-02T08:16:05.952Z,1002.33
2018-01-02T08:17:05.960Z,1002.32
2018-01-02T08:18:05.961Z,1002.35
2018-01-02T08:19:05.963Z,1002.36
2018-01-02T08:20:05.965Z,1002.38
2018-01-02T08:21:05.971Z,1002.38
2018-01-02T08:22:05.975Z,1002.41
2018-01-02T08:23:05.976Z,1002.44
2018-01-02T08:24:05.980Z,1002.45
2018-01-02T08:25:06.021Z,1002.46
2018-01-02T08:26:05.985Z,1002.52
2018-01-02T08:27:05.992Z,1002.50
2018-01-02T08:28:05.995Z,1002.54
2018-01-02T08:29:05.995Z,1002.61
2018-01-02T08:30:05.999Z,1002.68
2018-01-02T08:31:06.006Z,1002.70
2018-01-02T08:32:06.010Z,1002.71
2018-01-02T08:33:06.010Z,1002.72
2018-01-02T08:34:06.023Z,1002.73
2018-01-02T08:35:06.020Z,1002.74
2018-01-02T08:36:06.024Z,1002.76
2018-01-02T08:37:06.027Z,1002.78
2018-01-02T08:38:06.024Z,1002.83
2018-01-02T08:39:06.032Z,1002.82
2018-01-02T08:40:06.037Z,1002.83
2018-01-02T08:41:06.041Z,1002.82
2018-01-02T08:42:06.042Z,1002.85
2018-01-02T08:43:06.049Z,1002.84
2018-01-02T08:44:06.047Z,1002.84
2018-01-02T08:45:06.056Z,1002.83
2018-01-02T08:46:06.056Z,1002.88
2018-01-02T08:47:06.063Z,1002.89
2018-01-02T08:48:06.063Z,1002.94
2018-01-02T08:49:06.079Z,1002.93
2018-01-02T08:50:06.082Z,1002.94
2018-01-02T08:51:06.103Z,1003.01
2018-01-02T08:52:06.079Z,1002.98
2018-01-02T08:53:06.079Z,1003.04
2018-01-02T08:54:06.086Z,1003.05
2018-01-02T08:55:06.094Z,1003.06
2018-01-02T08:56:06.094Z,1003.12
2018-01-02T08:57:06.098Z,1003.12
2018-01-02T08:58:06.106Z,1003.17
2018-01-02T08:59:06.103Z,1003.13
2018-01-02T09:00:06.114Z,1003.17
2018-01-02T09:01:06.105Z,1003.18
2018-01-02T09:02:06.111Z,1003.20
2018-01-02T09:03:06.111Z,1003.25
2018-01-02T09:04:06.119Z,1003.25
2018-01-02T09:05:06.123Z,1003.23
2018-01-02T09:06:06.132Z,1003.28
2018-01-02T09:07:06.135Z,1003.25
2018-01-02T09:08:06.136Z,1003.30
2018-01-02T09:09:06.139Z,1003.31
2018-01-02T09:10:06.143Z,1003.38
2018-01-02T09:11:06.145Z,1003.38
2018-01-02T09:12:06.146Z,1003.39
2018-01-02T09:13:06.169Z,1003.40
2018-01-02T09:14:06.160Z,1003.41
2018-01-02T09:15:06.162Z,1003.43
2018-01-02T09:16:06.162Z,1003.42
2018-01-02T09:17:06.187Z,1003.46
2018-01-02T09:18:06.168Z,1003.46
2018-01-02T09:19:07.651Z,1003.51
2018-01-02T09:20:08.710Z,1003.52
2018-01-02T09:21:07.495Z,1003.49
2018-01-02T09:22:06.951Z,1003.51
2018-01-02T09:23:07.999Z,1003.53
2018-01-02T09:24:08.097Z,1003.53
2018-01-02T09:25:08.123Z,1003.58
2018-01-02T09:26:07.728Z,1003.53
2018-01-02T09:27:07.753Z,1003.55
2018-01-02T09:28:06.878Z,1003.57
2018-01-02T09:29:07.516Z,1003.56
2018-01-02T09:30:08.170Z,1003.56
2018-01-02T09:31:08.134Z,1003.61
2018-01-02T09:32:07.563Z,1003.65
2018-01-02T09:33:06.970Z,1003.60
2018-01-02T09:34:06.286Z,1003.62
2018-01-02T09:35:06.246Z,1003.62
2018-01-02T09:36:06.242Z,1003.67
2018-01-02T09:37:06.247Z,1003.70
2018-01-02T09:38:06.251Z,1003.73
2018-01-02T09:39:06.241Z,1003.74
2018-01-02T09:40:06.923Z,1003.75
2018-01-02T09:41:06.644Z,1003.72
2018-01-02T09:42:06.258Z,1003.75
2018-01-02T09:43:06.319Z,1003.75
2018-01-02T09:44:06.261Z,1003.76
2018-01-02T09:45:06.320Z,1003.77
2018-01-02T09:46:06.270Z,1003.83
2018-01-02T09:47:06.278Z,1003.81
2018-01-02T09:48:06.280Z,1003.90
2018-01-02T09:49:06.286Z,1003.94
2018-01-02T09:50:06.292Z,1003.91
2018-01-02T09:51:06.291Z,1004.00
2018-01-02T09:52:06.295Z,1004.00
2018-01-02T09:53:06.298Z,1004.09
2018-01-02T09:54:06.303Z,1003.91
2018-01-02T09:55:06.306Z,1003.94
2018-01-02T09:56:06.310Z,1003.92
2018-01-02T09:57:06.312Z,1003.97
2018-01-02T09:58:06.319Z,1003.97
2018-01-02T09:59:06.326Z,1003.97
2018-01-02T10:00:06.331Z,1004.02
2018-01-02T10:01:06.329Z,1004.02
2018-01-02T10:02:06.337Z,1004.05
2018-01-02T10:03:06.337Z,1004.11
2018-01-02T10:04:06.344Z,1004.11
2018-01-02T10:05:06.345Z,1004.15
2018-01-02T10:06:06.353Z,1004.11
2018-01-02T10:07:06.353Z,1004.11
2018-01-02T10:08:06.362Z,1004.15
2018-01-02T10:09:06.360Z,1004.15
2018-01-02T10:10:06.383Z,1004.15
2018-01-02T10:11:06.375Z,1004.14
2018-01-02T10:12:06.383Z,1004.15
2018-01-02T10:13:06.391Z,1004.21
2018-01-02T10:14:06.417Z,1004.19
2018-01-02T10:15:06.401Z,1004.13
2018-01-02T10:16:06.405Z,1004.17
2018-01-02T10:17:06.419Z,1004.17
2018-01-02T10:18:06.397Z,1004.19
2018-01-02T10:19:06.441Z,1004.19
2018-01-02T10:20:06.407Z,1004.22
2018-01-02T10:21:06.412Z,1004.26
2018-01-02T10:22:06.417Z,1004.20
2018-01-02T10:23:06.422Z,1004.23
2018-01-02T10:24:06.426Z,1004.27
2018-01-02T10:25:06.425Z,1004.30
2018-01-02T10:26:06.432Z,1004.31
2018-01-02T10:27:06.436Z,1004.32
2018-01-02T10:28:06.439Z,1004.28
2018-01-02T10:29:06.437Z,1004.34
2018-01-02T10:30:06.441Z,1004.33
2018-01-02T10:31:06.449Z,1004.35
2018-01-02T10:32:06.455Z,1004.32
2018-01-02T10:33:06.465Z,1004.30
2018-01-02T10:34:06.464Z,1004.27
2018-01-02T10:35:06.465Z,1004.30
2018-01-02T10:36:06.462Z,1004.32
2018-01-02T10:37:06.473Z,1004.29
2018-01-02T10:38:06.477Z,1004.35
2018-01-02T10:39:06.475Z,1004.32
2018-01-02T10:40:06.484Z,1004.32
2018-01-02T10:41:06.489Z,1004.38
2018-01-02T10:42:06.495Z,1004.33
2018-01-02T10:43:06.494Z,1004.33
2018-01-02T10:44:06.504Z,1004.35
2018-01-02T10:45:06.508Z,1004.36
2018-01-02T10:46:06.503Z,1004.38
2018-01-02T10:47:06.511Z,1004.36
2018-01-02T10:48:06.514Z,1004.39
2018-01-02T10:49:06.514Z,1004.42
2018-01-02T10:50:06.529Z,1004.43
2018-01-02T10:51:06.527Z,1004.42
2018-01-02T10:52:06.529Z,1004.42
2018-01-02T10:53:06.541Z,1004.43
2018-01-02T10:54:06.533Z,1004.41
2018-01-02T10:55:06.542Z,1004.36
2018-01-02T10:56:06.540Z,1004.38
2018-01-02T10:57:06.553Z,1004.38
2018-01-02T10:58:06.552Z,1004.38
2018-01-02T10:59:06.550Z,1004.37
2018-01-02T11:00:06.554Z,1004.39
2018-01-02T11:01:06.563Z,1004.41
2018-01-02T11:02:06.568Z,1004.44
2018-01-02T11:03:06.569Z,1004.47
2018-01-02T11:04:06.572Z,1004.40
2018-01-02T11:05:06.578Z,1004.43
2018-01-02T11:06:06.587Z,1004.43
2018-01-02T11:07:06.585Z,1004.48
2018-01-02T11:08:06.591Z,1004.47
2018-01-02T11:09:06.591Z,1004.47
2018-01-02T11:10:06.599Z,1004.54
2018-01-02T11:11:07.444Z,1004.56
2018-01-02T11:12:06.635Z,1004.51
2018-01-02T11:13:06.608Z,1004.52
2018-01-02T11:14:06.611Z,1004.54
2018-01-02T11:15:06.618Z,1004.56
2018-01-02T11:16:06.624Z,1004.51
2018-01-02T11:17:06.628Z,1004.54
2018-01-02T11:18:06.628Z,1004.57
2018-01-02T11:19:06.638Z,1004.56
2018-01-02T11:20:06.637Z,1004.58
2018-01-02T11:21:06.643Z,1004.63
2018-01-02T11:22:06.648Z,1004.58
2018-01-02T11:23:06.648Z,1004.63
2018-01-02T11:24:06.652Z,1004.67
2018-01-02T11:25:06.659Z,1004.70
2018-01-02T11:26:06.664Z,1004.74
2018-01-02T11:27:06.664Z,1004.77
2018-01-02T11:28:06.666Z,1004.81
2018-01-02T11:29:06.675Z,1004.78
2018-01-02T11:30:06.676Z,1004.78
2018-01-02T11:31:06.678Z,1004.82
2018-01-02T11:32:06.686Z,1004.82
2018-01-02T11:33:06.687Z,1004.79
2018-01-02T11:34:06.693Z,1004.85
2018-01-02T11:35:06.709Z,1004.85
2018-01-02T11:36:06.699Z,1004.87
2018-01-02T11:37:06.696Z,1004.78
2018-01-02T11:38:06.710Z,1004.84
2018-01-02T11:39:06.706Z,1004.84
2018-01-02T11:40:06.712Z,1004.80
2018-01-02T11:41:06.721Z,1004.84
2018-01-02T11:42:06.726Z,1004.86
2018-01-02T11:43:06.727Z,1004.86
2018-01-02T11:44:06.730Z,1004.88
2018-01-02T11:45:06.738Z,1004.83
2018-01-02T11:46:06.745Z,1004.88
2018-01-02T11:47:06.743Z,1004.86
2018-01-02T11:48:06.747Z,1004.89
2018-01-02T11:49:06.754Z,1004.86
2018-01-02T11:50:06.766Z,1004.84
2018-01-02T11:51:06.758Z,1004.85
2018-01-02T11:52:06.764Z,1004.89
2018-01-02T11:53:06.776Z,1004.90
2018-01-02T11:54:06.774Z,1004.86
2018-01-02T11:55:06.782Z,1004.90
2018-01-02T11:56:06.778Z,1004.92
2018-01-02T11:57:06.786Z,1004.84
2018-01-02T11:58:06.785Z,1004.77
2018-01-02T11:59:06.793Z,1004.83
2018-01-02T12:00:06.794Z,1004.75
2018-01-02T12:01:06.803Z,1004.79
2018-01-02T12:02:06.808Z,1004.77
2018-01-02T12:03:06.812Z,1004.74
2018-01-02T12:04:06.813Z,1004.71
2018-01-02T12:05:06.818Z,1004.70
2018-01-02T12:06:06.824Z,1004.74
2018-01-02T12:07:06.827Z,1004.72
2018-01-02T12:08:06.830Z,1004.73
2018-01-02T12:09:06.834Z,1004.74
2018-01-02T12:10:06.840Z,1004.73
2018-01-02T12:11:06.839Z,1004.69
2018-01-02T12:12:06.848Z,1004.68
2018-01-02T12:13:06.847Z,1004.68
2018-01-02T12:14:06.856Z,1004.65
2018-01-02T12:15:06.856Z,1004.67
2018-01-02T12:16:06.864Z,1004.63